A- A+ FrançaisEnglishEspañol中国

Services sur Internet Soldes sur Internet Des idées de cadeaux Météo Météo aéro

La météo à : Autours de vous Tarbes-Lourdes-PyrénéesPontoise-Cormeilles-En-VexinChateauroux-Deols Paris-Orly

manche à air

La météo aéronautique pour les pilotes, la préparation du vol avec les METAR (METeorological Aerodrome Report, message d'observation des conditions météorologiques pour l'aviation) et Les TAF (Terminal Aerodrome Forecast : message de prévision à court terme des conditions météorologiques pour l'aviation). Et les autres ressources comme les VAC (Visual Approch Chart) et les NOTAM (Notice To Airman) pour préprer les vols.

Aéroport Norman Wells (Canada) / OACI CYVQ/ IATA YVQ

L'altitude de l'aéroport Norman Wells est de 73 m = 240 ft. Il est situé à proximité de Norman Wells (Canada). La météo générale à 5 jours est disponible pour Norman Wells situé à 1.6 km.

METAR de l'aéroport Norman Wells - CYVQ

CYVQ 041600Z 28011KT 5SM -SN FEW009 BKN030 OVC095 M08/M09 A3041 RMK ST2SC4AC2 SLP306

Décodage du METAR de l'aéroport Norman Wells (CA)

METAR émis par CYVQ le lundi 4 novembre 2019 à 16:00 heure TU. Attention ce METAR est obsolète car il a été émis il y a 10 heure et 29 minutes.

La visibilité est de 8 km = 5 sm.

La température est de -8°C = 18 °F et le point rosée est de -9°C = 16 °F . Ce qui correspond à 93% d'humidité relative.

Le QNH est de 1030 hPa = 30.42 inHg

Vent de 11 kt = 20 km/h, orienté à 280°.

Nuages : Quelques nuages à 900 ft = 270 mètres. Couverture nuageuse fragmentée à 3000 ft = 910 mètres. Couverture nuageuse soudée à 9500 ft = 2900 mètres.

-SN

RMK ST2SC4AC2 SLP306

TAF de l'aéroport Norman Wells - CYVQ

CYVQ 041138Z 0412/0424 29010G20KT P6SM SCT015 OVC030 TEMPO 0412/0424 2SM -SN SCT005 OVC015 RMK NXT FCST BY 041800Z

CYVQ 041138Z 0412/0424 29010G20KT P6SM nuages épars à 015 couverture nuageuse soudée à 030 temporairement 0412/0424 2SM faible SN nuages épars à 005 couverture nuageuse soudée à 015 remarques NXT trombe ST BY 041800Z

Aéroport à proximité de Norman Wells

Météo générale à 5 jours à Norman Wells (1.6 km)Aéroport Fort Norman (71 km)Aéroport Fort Good Hope (136 km)Aéroport Deline (157 km)Aéroport Wrigley (282 km)Aéroport Fort Mc Pherson (430 km)Aéroport Inuvik (445 km)

Vue aérienne de l'aéroport Norman Wells

NOTAM de l'aéroport Norman Wells

Les NOTAM sont fournis sans aucune garantie de leur actualité. Le pilote est le seul responsable de la vérification de sa validité avant de l'utiliser opérationnellement pour préparer un vol ou l'utiliser lors de sa navigation.

NOTAM Instrument approach procedure (du jeudi 10 octobre 2019 à 09:01 au jeudi 5 décembre 2019 à 09:01)

C0138/19 NOTAMN
Q) CZEG/QPICH/I/NBO/A/000/999/6517N12648W005
A) CYVQ B) 1910100901 C) 1912050901
E) RNAV (GNSS) RWY 28 APCH: LNAV MINIMA TO READ 760 (523) 1 3/4
PLAN AND PROFILE VIEW: MUPUB TO RUBKU DIST TO READ: 2.8
RUBKU TO RW28 DIST TO READ: 2.4
CREATED: 10 Oct 2019 01:49:00
SOURCE: CYHQYNYX

Sources des données